createdAt,value
2023-04-15T00:02:22.996Z,36.22
2023-04-15T00:04:51.076Z,36.27
2023-04-15T00:07:19.119Z,36.21
2023-04-15T00:09:48.384Z,36.34
2023-04-15T00:12:16.285Z,36.35
2023-04-15T00:14:45.063Z,36.24
2023-04-15T00:17:15.522Z,36.30
2023-04-15T00:19:44.825Z,36.22
2023-04-15T00:22:12.846Z,36.25
2023-04-15T00:24:40.958Z,36.21
2023-04-15T00:27:10.337Z,36.25
2023-04-15T00:29:38.307Z,36.11
2023-04-15T00:32:09.215Z,36.08
2023-04-15T00:34:37.283Z,36.06
2023-04-15T00:37:05.340Z,36.00
2023-04-15T00:39:33.229Z,36.07
2023-04-15T00:42:01.422Z,36.09
2023-04-15T00:44:30.860Z,36.00
2023-04-15T00:46:59.470Z,35.97
2023-04-15T00:49:28.945Z,35.94
2023-04-15T00:51:57.124Z,35.94
2023-04-15T00:54:27.935Z,35.90
2023-04-15T00:56:56.584Z,35.96
2023-04-15T00:59:27.161Z,35.97
2023-04-15T01:01:57.398Z,35.85
2023-04-15T01:04:26.301Z,35.75
2023-04-15T01:06:54.352Z,35.83
2023-04-15T01:09:22.277Z,35.76
2023-04-15T01:11:50.301Z,35.83
2023-04-15T01:14:18.227Z,35.85
2023-04-15T01:16:46.194Z,35.79
2023-04-15T01:19:17.705Z,35.90
2023-04-15T01:21:48.308Z,35.70
2023-04-15T01:24:19.628Z,35.93
2023-04-15T01:26:50.385Z,35.86
2023-04-15T01:29:19.365Z,35.78
2023-04-15T01:31:52.430Z,35.85
2023-04-15T01:34:20.939Z,35.83
2023-04-15T01:36:49.322Z,35.98
2023-04-15T01:39:17.282Z,35.78
2023-04-15T01:41:46.672Z,35.85
2023-04-15T01:44:16.480Z,35.79
2023-04-15T01:46:48.372Z,35.88
2023-04-15T01:49:17.072Z,35.95
2023-04-15T01:51:44.988Z,35.90
2023-04-15T01:54:13.099Z,35.91
2023-04-15T01:56:41.050Z,35.85
2023-04-15T01:59:09.798Z,35.83
2023-04-15T02:01:39.748Z,35.85
2023-04-15T02:04:08.384Z,35.86
2023-04-15T02:06:39.392Z,35.91
2023-04-15T02:09:08.620Z,35.91
2023-04-15T02:11:37.270Z,35.70
2023-04-15T02:14:05.762Z,35.74
2023-04-15T02:16:34.564Z,35.89
2023-04-15T02:19:04.337Z,35.93
2023-04-15T02:21:32.266Z,35.69
2023-04-15T02:24:00.671Z,35.92
2023-04-15T02:26:32.101Z,35.88
2023-04-15T02:29:00.639Z,35.83
2023-04-15T02:31:34.096Z,35.86
2023-04-15T02:34:04.363Z,35.88
2023-04-15T02:36:32.570Z,35.98
2023-04-15T02:39:00.821Z,35.97
2023-04-15T02:41:28.929Z,35.96
2023-04-15T02:43:57.243Z,36.06
2023-04-15T02:46:25.301Z,36.01
2023-04-15T02:48:53.886Z,36.06
2023-04-15T02:51:23.605Z,35.96
2023-04-15T02:53:51.734Z,36.01
2023-04-15T02:56:23.315Z,35.95
2023-04-15T02:58:51.569Z,36.06
2023-04-15T03:01:20.637Z,35.98
2023-04-15T03:03:48.825Z,35.96
2023-04-15T03:06:16.839Z,35.92
2023-04-15T03:08:46.762Z,36.14
2023-04-15T03:11:17.017Z,36.08
2023-04-15T03:13:44.994Z,36.16
2023-04-15T03:16:13.040Z,35.92
2023-04-15T03:18:40.972Z,36.04
2023-04-15T03:21:08.985Z,35.96
2023-04-15T03:23:36.890Z,36.04
2023-04-15T03:26:06.564Z,36.03
2023-04-15T03:28:34.598Z,36.12
2023-04-15T03:31:02.511Z,35.80
2023-04-15T03:33:30.485Z,36.13
2023-04-15T03:35:58.433Z,36.16
2023-04-15T03:38:28.842Z,36.12
2023-04-15T03:40:56.877Z,36.13
2023-04-15T03:43:26.505Z,36.19
2023-04-15T03:45:54.540Z,36.10
2023-04-15T03:48:22.439Z,36.13
2023-04-15T03:50:50.448Z,36.14
2023-04-15T03:53:22.462Z,36.13
2023-04-15T03:55:50.493Z,36.00
2023-04-15T03:58:18.861Z,36.08
2023-04-15T04:00:48.154Z,36.07
2023-04-15T04:03:16.663Z,36.24
2023-04-15T04:05:44.874Z,36.24
2023-04-15T04:08:13.943Z,36.18
2023-04-15T04:10:41.982Z,36.19
2023-04-15T04:13:10.169Z,36.30
2023-04-15T04:15:38.115Z,36.31
2023-04-15T04:18:07.583Z,36.23
2023-04-15T04:20:35.673Z,36.30
2023-04-15T04:23:03.564Z,36.29
2023-04-15T04:25:31.515Z,36.32
2023-04-15T04:27:59.462Z,36.11
2023-04-15T04:30:27.387Z,36.26
2023-04-15T04:32:55.461Z,36.23
2023-04-15T04:35:24.818Z,36.64
2023-04-15T04:37:53.805Z,36.72
2023-04-15T04:40:21.820Z,36.45
2023-04-15T04:42:49.851Z,36.50
2023-04-15T04:45:18.160Z,36.45
2023-04-15T04:47:46.809Z,36.51
2023-04-15T04:50:14.977Z,36.69
2023-04-15T04:52:44.301Z,36.73
2023-04-15T04:55:14.745Z,36.81
2023-04-15T04:57:42.674Z,36.94
2023-04-15T05:00:12.618Z,36.77
2023-04-15T05:02:41.845Z,36.80
2023-04-15T05:05:10.986Z,36.72
2023-04-15T05:07:39.494Z,37.02
2023-04-15T05:10:10.361Z,36.99
2023-04-15T05:12:38.590Z,36.89
2023-04-15T05:15:08.421Z,37.05
2023-04-15T05:17:36.483Z,37.12
2023-04-15T05:20:04.937Z,37.12
2023-04-15T05:22:32.899Z,37.25
2023-04-15T05:25:00.972Z,37.18
2023-04-15T05:27:30.860Z,37.34
2023-04-15T05:29:58.801Z,37.28
2023-04-15T05:32:26.746Z,37.18
2023-04-15T05:34:54.772Z,37.18
2023-04-15T05:37:22.675Z,37.27
2023-04-15T05:39:50.611Z,37.21
2023-04-15T05:42:18.706Z,37.21
2023-04-15T05:44:50.509Z,37.15
2023-04-15T05:47:18.451Z,37.11
2023-04-15T05:49:46.487Z,37.05
2023-04-15T05:52:14.426Z,37.18
2023-04-15T05:54:42.381Z,37.13
2023-04-15T05:57:10.319Z,37.24
2023-04-15T05:59:42.181Z,37.21
2023-04-15T06:02:12.111Z,37.15
2023-04-15T06:04:40.610Z,37.28
2023-04-15T06:07:08.785Z,37.37
2023-04-15T06:09:36.778Z,37.20
2023-04-15T06:12:04.947Z,37.18
2023-04-15T06:14:32.908Z,37.11
2023-04-15T06:17:00.833Z,37.12
2023-04-15T06:19:30.418Z,37.04
2023-04-15T06:21:59.163Z,37.16
2023-04-15T06:24:27.243Z,37.16
2023-04-15T06:26:55.186Z,37.25
2023-04-15T06:29:23.089Z,37.06
2023-04-15T06:31:51.208Z,37.13
2023-04-15T06:34:21.897Z,37.11
2023-04-15T06:36:51.224Z,37.02
2023-04-15T06:39:19.197Z,36.98
2023-04-15T06:41:47.398Z,37.04
2023-04-15T06:44:15.883Z,37.05
2023-04-15T06:46:43.816Z,37.13
2023-04-15T06:49:12.364Z,37.05
2023-04-15T06:51:40.357Z,36.88
2023-04-15T06:54:09.740Z,36.94
2023-04-15T06:56:37.705Z,37.00
2023-04-15T06:59:05.626Z,37.04
2023-04-15T07:01:33.573Z,37.01
2023-04-15T07:04:07.131Z,36.89
2023-04-15T07:06:35.562Z,37.07
2023-04-15T07:09:05.507Z,37.22
2023-04-15T07:11:35.095Z,37.26
2023-04-15T07:14:03.058Z,40.46
2023-04-15T07:16:31.248Z,42.07
2023-04-15T07:18:59.499Z,41.29
2023-04-15T07:21:28.082Z,40.45
2023-04-15T07:23:56.051Z,40.03
2023-04-15T07:26:24.695Z,39.78
2023-04-15T07:28:53.955Z,39.59
2023-04-15T07:31:22.144Z,39.58
2023-04-15T07:33:50.115Z,39.82
2023-04-15T07:36:18.158Z,39.51
2023-04-15T07:38:46.101Z,39.76
2023-04-15T07:41:14.290Z,39.60
2023-04-15T07:43:45.340Z,39.46
2023-04-15T07:46:14.666Z,39.53
2023-04-15T07:48:42.755Z,39.59
2023-04-15T07:51:10.895Z,41.50
2023-04-15T07:53:38.919Z,41.20
2023-04-15T07:56:07.398Z,40.37
2023-04-15T07:58:35.560Z,39.96
2023-04-15T08:01:03.426Z,39.81
2023-04-15T08:03:41.315Z,39.54
2023-04-15T08:06:12.345Z,39.73
2023-04-15T08:08:40.291Z,39.62
2023-04-15T08:11:08.230Z,39.66
2023-04-15T08:13:36.232Z,39.62
2023-04-15T08:16:19.996Z,39.55
2023-04-15T08:18:54.214Z,39.60
2023-04-15T08:21:23.009Z,39.26
2023-04-15T08:23:52.478Z,39.51
2023-04-15T08:26:21.651Z,39.50
2023-04-15T08:28:50.468Z,39.62
2023-04-15T08:31:19.544Z,39.31
2023-04-15T08:33:47.646Z,39.25
2023-04-15T08:36:17.638Z,39.34
2023-04-15T08:38:46.004Z,39.47
2023-04-15T08:41:22.510Z,39.27
2023-04-15T08:43:54.956Z,39.25
2023-04-15T08:46:23.764Z,39.27
2023-04-15T08:48:58.533Z,39.34
2023-04-15T08:51:28.230Z,39.31
2023-04-15T08:53:56.271Z,39.20
2023-04-15T08:56:26.820Z,39.31
2023-04-15T08:58:55.288Z,39.31
2023-04-15T09:01:23.957Z,39.31
2023-04-15T09:03:52.804Z,39.35
2023-04-15T09:06:21.784Z,39.37
2023-04-15T09:08:51.856Z,39.49
2023-04-15T09:11:20.518Z,42.09
2023-04-15T09:13:48.939Z,41.42
2023-04-15T09:16:16.925Z,42.20
2023-04-15T09:18:47.898Z,41.95
2023-04-15T09:21:18.147Z,40.95
2023-04-15T09:23:58.386Z,40.83
2023-04-15T09:26:36.521Z,40.80
2023-04-15T09:29:09.258Z,40.81
2023-04-15T09:31:37.658Z,40.75
2023-04-15T09:34:05.804Z,40.68
2023-04-15T09:36:52.678Z,40.62
2023-04-15T09:39:22.489Z,40.67
2023-04-15T09:42:06.783Z,40.67
2023-04-15T09:44:35.229Z,40.75
2023-04-15T09:47:05.808Z,40.75
2023-04-15T09:49:34.234Z,40.77
2023-04-15T09:52:06.544Z,40.79
2023-04-15T09:54:38.683Z,40.51
2023-04-15T09:57:08.222Z,40.63
2023-04-15T09:59:36.163Z,40.58
2023-04-15T10:02:06.486Z,40.66
2023-04-15T10:04:37.578Z,40.66
2023-04-15T10:07:07.085Z,40.37
2023-04-15T10:09:37.464Z,40.74
2023-04-15T10:12:06.446Z,40.88
2023-04-15T10:14:38.547Z,40.69
2023-04-15T10:17:06.749Z,40.50
2023-04-15T10:19:37.646Z,40.43
2023-04-15T10:22:07.960Z,40.36
2023-04-15T10:24:37.937Z,40.78
2023-04-15T10:27:08.566Z,41.12
2023-04-15T10:29:36.819Z,40.39
2023-04-15T10:32:05.581Z,40.36
2023-04-15T10:34:33.919Z,40.55
2023-04-15T10:37:04.031Z,40.50
2023-04-15T10:39:44.704Z,40.52
2023-04-15T10:42:15.246Z,40.69
2023-04-15T10:44:45.039Z,40.58
2023-04-15T10:47:14.708Z,40.83
2023-04-15T10:49:51.062Z,40.86
2023-04-15T10:52:23.430Z,40.91
2023-04-15T10:55:04.732Z,41.43
2023-04-15T10:57:36.945Z,41.33
2023-04-15T11:00:12.358Z,41.68
2023-04-15T11:02:45.958Z,41.40
2023-04-15T11:05:14.664Z,41.95
2023-04-15T11:07:49.929Z,41.78
2023-04-15T11:10:58.911Z,43.24
2023-04-15T11:13:29.385Z,42.54
2023-04-15T11:16:00.328Z,42.86
2023-04-15T11:18:31.262Z,42.29
2023-04-15T11:21:01.768Z,42.40
2023-04-15T11:23:34.418Z,42.41
2023-04-15T11:26:09.758Z,42.34
2023-04-15T11:28:39.180Z,42.72
2023-04-15T11:31:12.255Z,42.98
2023-04-15T11:33:47.079Z,43.00
2023-04-15T11:36:15.266Z,42.75
2023-04-15T11:38:48.490Z,42.77
2023-04-15T11:41:21.991Z,42.62
2023-04-15T11:43:50.142Z,43.02
2023-04-15T11:46:18.541Z,43.39
2023-04-15T11:48:48.477Z,43.40
2023-04-15T11:51:16.657Z,43.39
2023-04-15T11:53:46.268Z,43.55
2023-04-15T11:56:21.217Z,43.12
2023-04-15T11:58:50.988Z,43.30
2023-04-15T12:01:19.215Z,43.11
2023-04-15T12:03:50.538Z,43.06
2023-04-15T12:06:20.140Z,43.09
2023-04-15T12:09:05.052Z,42.98
2023-04-15T12:11:38.292Z,42.82
2023-04-15T12:14:09.048Z,42.90
2023-04-15T12:16:47.816Z,43.62
2023-04-15T12:19:19.742Z,43.46
2023-04-15T12:21:49.470Z,43.52
2023-04-15T12:24:22.115Z,43.52
2023-04-15T12:26:53.167Z,43.96
2023-04-15T12:29:22.212Z,45.02
2023-04-15T12:31:51.810Z,45.37
2023-04-15T12:34:21.014Z,45.02
2023-04-15T12:36:49.918Z,45.22
2023-04-15T12:39:17.822Z,44.18
2023-04-15T12:41:45.719Z,42.13
2023-04-15T12:44:15.064Z,42.77
2023-04-15T12:46:43.042Z,43.03
2023-04-15T12:49:11.100Z,43.07
2023-04-15T12:51:43.475Z,42.73
2023-04-15T12:54:11.466Z,42.67
2023-04-15T12:56:42.210Z,42.90
2023-04-15T12:59:10.258Z,43.14
2023-04-15T13:01:39.989Z,43.03
2023-04-15T13:04:08.719Z,42.79
2023-04-15T13:06:38.319Z,42.73
2023-04-15T13:09:06.650Z,42.79
2023-04-15T13:11:35.792Z,43.15
2023-04-15T13:14:05.150Z,43.02
2023-04-15T13:16:33.935Z,42.82
2023-04-15T13:19:04.349Z,42.93
2023-04-15T13:21:35.796Z,42.95
2023-04-15T13:24:07.083Z,42.81
2023-04-15T13:26:35.401Z,42.68
2023-04-15T13:29:03.343Z,42.61
2023-04-15T13:31:31.352Z,42.68
2023-04-15T13:33:59.289Z,42.69
2023-04-15T13:36:28.618Z,42.72
2023-04-15T13:38:57.030Z,42.96
2023-04-15T13:41:24.977Z,42.43
2023-04-15T13:43:55.754Z,42.63
2023-04-15T13:46:23.726Z,42.16
2023-04-15T13:48:51.645Z,41.80
2023-04-15T13:51:19.580Z,42.06
2023-04-15T13:53:48.887Z,42.02
2023-04-15T13:56:16.831Z,41.90
2023-04-15T13:58:44.814Z,41.65
2023-04-15T14:01:12.773Z,41.76
2023-04-15T14:03:40.929Z,41.52
2023-04-15T14:06:11.694Z,41.74
2023-04-15T14:08:41.139Z,41.50
2023-04-15T14:11:11.057Z,41.61
2023-04-15T14:13:39.070Z,41.67
2023-04-15T14:16:08.651Z,41.64
2023-04-15T14:18:37.359Z,41.53
2023-04-15T14:21:07.074Z,41.39
2023-04-15T14:23:35.030Z,41.16
2023-04-15T14:26:03.022Z,41.19
2023-04-15T14:28:32.817Z,41.17
2023-04-15T14:31:01.133Z,41.28
2023-04-15T14:33:29.136Z,41.19
2023-04-15T14:35:57.290Z,41.46
2023-04-15T14:38:25.401Z,42.05
2023-04-15T14:40:53.336Z,42.03
2023-04-15T14:43:21.731Z,42.29
2023-04-15T14:45:51.981Z,42.73
2023-04-15T14:48:20.046Z,42.91
2023-04-15T14:50:50.944Z,43.22
2023-04-15T14:53:18.935Z,43.59
2023-04-15T14:55:46.862Z,43.67
2023-04-15T14:58:14.821Z,42.56
2023-04-15T15:00:46.007Z,42.73
2023-04-15T15:03:15.825Z,42.65
2023-04-15T15:05:46.779Z,43.19
2023-04-15T15:08:18.056Z,43.23
2023-04-15T15:10:49.139Z,43.18
2023-04-15T15:13:18.930Z,43.38
2023-04-15T15:15:50.221Z,43.28
2023-04-15T15:18:19.864Z,43.53
2023-04-15T15:20:48.112Z,43.71
2023-04-15T15:23:16.117Z,43.94
2023-04-15T15:25:47.827Z,44.37
2023-04-15T15:28:15.882Z,44.60
2023-04-15T15:30:43.773Z,44.82
2023-04-15T15:33:11.810Z,44.92
2023-04-15T15:35:41.178Z,45.23
2023-04-15T15:38:12.208Z,45.61
2023-04-15T15:40:40.430Z,45.73
2023-04-15T15:43:10.891Z,45.66
2023-04-15T15:45:38.847Z,45.91
2023-04-15T15:48:07.762Z,45.44
2023-04-15T15:50:38.557Z,45.62
2023-04-15T15:53:07.945Z,45.81
2023-04-15T15:55:35.825Z,45.86
2023-04-15T15:58:03.779Z,46.01
2023-04-15T16:00:31.799Z,46.00
2023-04-15T16:03:07.383Z,45.66
2023-04-15T16:05:36.162Z,46.00
2023-04-15T16:08:04.251Z,45.88
2023-04-15T16:10:33.672Z,45.68
2023-04-15T16:13:01.977Z,45.86
2023-04-15T16:15:30.373Z,45.71
2023-04-15T16:18:01.643Z,45.73
2023-04-15T16:20:29.858Z,45.77
2023-04-15T16:23:00.936Z,45.91
2023-04-15T16:25:28.876Z,45.99
2023-04-15T16:28:03.549Z,45.86
2023-04-15T16:30:37.153Z,45.89
2023-04-15T16:33:05.231Z,45.92
2023-04-15T16:35:34.655Z,45.77
2023-04-15T16:38:03.122Z,45.77
2023-04-15T16:40:31.739Z,45.63
2023-04-15T16:43:01.095Z,45.81
2023-04-15T16:45:29.081Z,45.73
2023-04-15T16:47:57.863Z,45.68
2023-04-15T16:50:26.046Z,45.80
2023-04-15T16:52:54.034Z,45.74
2023-04-15T16:55:22.129Z,45.49
2023-04-15T16:57:54.058Z,45.64
2023-04-15T17:00:31.087Z,45.46
2023-04-15T17:02:59.356Z,45.52
2023-04-15T17:05:30.621Z,45.43
2023-04-15T17:07:58.763Z,45.46
2023-04-15T17:10:26.726Z,45.58
2023-04-15T17:12:56.684Z,45.59
2023-04-15T17:15:25.270Z,45.44
2023-04-15T17:17:54.758Z,45.53
2023-04-15T17:20:22.778Z,45.44
2023-04-15T17:22:50.815Z,45.63
2023-04-15T17:25:19.448Z,45.47
2023-04-15T17:27:47.502Z,45.63
2023-04-15T17:30:15.673Z,45.70
2023-04-15T17:32:43.721Z,45.92
2023-04-15T17:35:13.146Z,46.18
2023-04-15T17:37:41.138Z,45.42
2023-04-15T17:40:10.106Z,45.03
2023-04-15T17:42:38.077Z,45.08
2023-04-15T17:45:09.651Z,44.93
2023-04-15T17:47:37.712Z,44.86
2023-04-15T17:50:06.343Z,44.89
2023-04-15T17:52:35.866Z,44.88
2023-04-15T17:55:03.798Z,44.85
2023-04-15T17:57:31.789Z,45.00
2023-04-15T18:00:01.403Z,44.74
2023-04-15T18:02:29.545Z,44.68
2023-04-15T18:04:57.816Z,44.67
2023-04-15T18:07:26.472Z,44.66
2023-04-15T18:09:56.439Z,44.64
2023-04-15T18:12:24.434Z,44.71
2023-04-15T18:14:52.376Z,44.64
2023-04-15T18:17:20.638Z,44.64
2023-04-15T18:19:48.757Z,44.42
2023-04-15T18:22:16.654Z,44.46
2023-04-15T18:24:44.651Z,44.39
2023-04-15T18:27:14.133Z,44.31
2023-04-15T18:29:42.884Z,44.54
2023-04-15T18:32:11.279Z,44.59
2023-04-15T18:34:42.904Z,44.49
2023-04-15T18:37:10.990Z,44.43
2023-04-15T18:39:38.916Z,44.26
2023-04-15T18:42:07.018Z,44.55
2023-04-15T18:44:36.325Z,44.51
2023-04-15T18:47:04.797Z,44.45
2023-04-15T18:49:33.322Z,44.25
2023-04-15T18:52:01.309Z,44.49
2023-04-15T18:54:29.245Z,44.42
2023-04-15T18:56:57.555Z,44.16
2023-04-15T18:59:29.615Z,44.30
2023-04-15T19:02:01.255Z,44.26
2023-04-15T19:04:29.843Z,44.42
2023-04-15T19:06:59.015Z,44.36
2023-04-15T19:09:27.436Z,44.36
2023-04-15T19:11:56.813Z,44.44
2023-04-15T19:14:25.139Z,44.49
2023-04-15T19:16:53.132Z,44.37
2023-04-15T19:19:22.441Z,44.42
2023-04-15T19:21:50.587Z,44.54
2023-04-15T19:24:19.183Z,44.41
2023-04-15T19:26:50.199Z,44.18
2023-04-15T19:29:18.417Z,44.39
2023-04-15T19:31:49.131Z,44.32
2023-04-15T19:34:17.555Z,44.34
2023-04-15T19:36:50.080Z,44.35
2023-04-15T19:39:18.488Z,44.34
2023-04-15T19:41:47.408Z,44.27
2023-04-15T19:44:16.626Z,44.20
2023-04-15T19:46:44.945Z,44.26
2023-04-15T19:49:12.965Z,44.32
2023-04-15T19:51:42.579Z,44.20
2023-04-15T19:54:11.921Z,44.11
2023-04-15T19:56:39.827Z,44.17
2023-04-15T19:59:07.878Z,44.05
2023-04-15T20:01:36.053Z,44.23
2023-04-15T20:04:04.350Z,44.10
2023-04-15T20:06:32.647Z,44.16
2023-04-15T20:09:03.698Z,44.35
2023-04-15T20:12:48.170Z,43.75
2023-04-15T20:14:25.040Z,43.66
2023-04-15T20:16:53.000Z,44.04
2023-04-15T20:19:20.948Z,44.05
2023-04-15T20:21:49.447Z,43.63
2023-04-15T20:24:21.553Z,44.04
2023-04-15T20:26:50.931Z,44.02
2023-04-15T20:29:18.887Z,43.72
2023-04-15T20:31:47.190Z,43.96
2023-04-15T20:34:15.206Z,43.94
2023-04-15T20:36:43.189Z,43.92
2023-04-15T20:39:11.483Z,43.75
2023-04-15T20:41:39.535Z,44.01
2023-04-15T20:44:08.884Z,43.99
2023-04-15T20:46:36.817Z,43.84
2023-04-15T20:49:05.129Z,44.26
2023-04-15T20:51:37.689Z,43.88
2023-04-15T20:54:05.972Z,44.02
2023-04-15T20:56:36.972Z,43.88
2023-04-15T20:59:05.305Z,43.82
2023-04-15T21:01:37.677Z,43.75
2023-04-15T21:04:05.896Z,43.89
2023-04-15T21:06:34.483Z,43.77
2023-04-15T21:09:02.484Z,43.64
2023-04-15T21:11:53.408Z,43.68
2023-04-15T21:14:18.475Z,44.31
2023-04-15T21:16:48.074Z,43.68
2023-04-15T21:19:18.888Z,43.68
2023-04-15T21:21:46.857Z,43.71
2023-04-15T21:24:14.834Z,43.71
2023-04-15T21:26:42.811Z,43.70
2023-04-15T21:29:11.923Z,43.58
2023-04-15T21:31:40.211Z,43.33
2023-04-15T21:34:09.775Z,43.51
2023-04-15T21:36:38.669Z,43.50
2023-04-15T21:39:07.130Z,43.34
2023-04-15T21:41:35.239Z,43.31
2023-04-15T21:44:04.117Z,43.24
2023-04-15T21:46:35.202Z,43.34
2023-04-15T21:49:03.835Z,43.44
2023-04-15T21:51:33.593Z,43.15
2023-04-15T21:54:01.705Z,43.21
2023-04-15T21:56:35.942Z,43.21
2023-04-15T21:59:04.078Z,43.05
2023-04-15T22:01:32.353Z,42.99
2023-04-15T22:04:00.618Z,42.92
2023-04-15T22:06:28.698Z,42.96
2023-04-15T22:08:58.082Z,42.71
2023-04-15T22:11:28.175Z,42.98
2023-04-15T22:13:57.276Z,42.73
2023-04-15T22:16:26.445Z,42.18
2023-04-15T22:18:54.828Z,42.63
2023-04-15T22:21:22.846Z,42.56
2023-04-15T22:23:50.876Z,42.51
2023-04-15T22:26:21.024Z,42.48
2023-04-15T22:28:48.946Z,42.54
2023-04-15T22:31:16.934Z,42.54
2023-04-15T22:33:47.405Z,42.51
2023-04-15T22:36:15.535Z,42.52
2023-04-15T22:38:43.536Z,42.39
2023-04-15T22:41:11.514Z,42.32
2023-04-15T22:43:40.795Z,42.42
2023-04-15T22:46:10.722Z,42.31
2023-04-15T22:48:42.528Z,42.33
2023-04-15T22:51:10.523Z,42.26
2023-04-15T22:53:38.513Z,42.34
2023-04-15T22:56:07.237Z,42.28
2023-04-15T22:58:35.183Z,42.41
2023-04-15T23:01:04.675Z,42.26
2023-04-15T23:03:32.742Z,42.27
2023-04-15T23:06:20.682Z,42.41
2023-04-15T23:08:50.014Z,42.28
2023-04-15T23:11:18.476Z,42.39
2023-04-15T23:13:50.544Z,42.32
2023-04-15T23:16:19.939Z,42.07
2023-04-15T23:18:48.022Z,42.23
2023-04-15T23:21:15.929Z,42.32
2023-04-15T23:23:43.973Z,42.14
2023-04-15T23:26:11.933Z,41.99
2023-04-15T23:28:39.957Z,42.14
2023-04-15T23:31:07.934Z,42.03
2023-04-15T23:33:38.133Z,42.22
2023-04-15T23:36:08.845Z,42.28
2023-04-15T23:38:39.267Z,42.16
2023-04-15T23:41:09.199Z,42.21
2023-04-15T23:43:37.146Z,42.06
2023-04-15T23:46:05.185Z,42.13
2023-04-15T23:48:33.236Z,42.17
2023-04-15T23:51:02.704Z,42.18
2023-04-15T23:53:31.177Z,42.22
2023-04-15T23:55:59.080Z,42.15
2023-04-15T23:58:27.108Z,42.30
